createdAt,value
2023-05-20T00:00:10.059Z,40.36
2023-05-20T00:02:43.449Z,40.40
2023-05-20T00:05:16.305Z,40.33
2023-05-20T00:07:49.252Z,40.39
2023-05-20T00:10:22.327Z,40.39
2023-05-20T00:12:55.336Z,40.43
2023-05-20T00:15:28.443Z,40.58
2023-05-20T00:18:02.439Z,40.44
2023-05-20T00:20:35.374Z,40.55
2023-05-20T00:23:07.997Z,40.50
2023-05-20T00:25:44.050Z,40.58
2023-05-20T00:28:17.343Z,40.66
2023-05-20T00:30:51.378Z,40.55
2023-05-20T00:33:24.418Z,40.53
2023-05-20T00:35:57.395Z,40.50
2023-05-20T00:38:30.373Z,40.61
2023-05-20T00:41:03.333Z,40.61
2023-05-20T00:43:36.504Z,40.67
2023-05-20T00:46:10.556Z,40.64
2023-05-20T00:48:44.507Z,40.55
2023-05-20T00:51:17.322Z,40.60
2023-05-20T00:53:50.324Z,40.55
2023-05-20T00:56:23.446Z,40.56
2023-05-20T00:58:56.695Z,40.65
2023-05-20T01:01:30.531Z,40.63
2023-05-20T01:04:04.253Z,40.57
2023-05-20T01:06:37.454Z,40.56
2023-05-20T01:09:10.570Z,40.56
2023-05-20T01:11:44.448Z,40.61
2023-05-20T01:14:17.449Z,40.53
2023-05-20T01:16:50.367Z,40.52
2023-05-20T01:19:23.538Z,40.48
2023-05-20T01:21:56.397Z,40.69
2023-05-20T01:24:29.567Z,40.61
2023-05-20T01:27:03.243Z,40.56
2023-05-20T01:29:36.440Z,40.53
2023-05-20T01:32:09.452Z,40.54
2023-05-20T01:34:42.634Z,40.49
2023-05-20T01:37:16.461Z,40.44
2023-05-20T01:39:49.377Z,40.49
2023-05-20T01:42:22.516Z,40.49
2023-05-20T01:44:55.444Z,40.44
2023-05-20T01:47:28.633Z,40.53
2023-05-20T01:50:02.668Z,40.51
2023-05-20T01:52:36.454Z,40.45
2023-05-20T01:55:09.527Z,40.51
2023-05-20T01:57:42.617Z,40.54
2023-05-20T02:00:16.410Z,40.57
2023-05-20T02:02:49.541Z,40.51
2023-05-20T02:05:22.454Z,40.56
2023-05-20T02:07:55.157Z,40.49
2023-05-20T02:10:28.513Z,40.40
2023-05-20T02:13:01.576Z,40.55
2023-05-20T02:15:34.960Z,40.55
2023-05-20T02:18:08.325Z,40.48
2023-05-20T02:20:41.580Z,40.40
2023-05-20T02:23:14.501Z,40.44
2023-05-20T02:25:47.479Z,40.47
2023-05-20T02:28:20.635Z,40.57
2023-05-20T02:30:54.503Z,40.48
2023-05-20T02:33:27.643Z,40.55
2023-05-20T02:36:01.420Z,40.52
2023-05-20T02:38:34.551Z,40.59
2023-05-20T02:41:21.279Z,40.83
2023-05-20T02:43:54.497Z,40.70
2023-05-20T02:46:27.512Z,40.61
2023-05-20T02:49:00.436Z,40.68
2023-05-20T02:51:33.587Z,40.75
2023-05-20T02:54:06.503Z,40.76
2023-05-20T02:56:39.445Z,40.75
2023-05-20T02:59:12.573Z,40.80
2023-05-20T03:01:45.472Z,40.79
2023-05-20T03:04:18.548Z,40.81
2023-05-20T03:06:51.609Z,40.83
2023-05-20T03:09:24.544Z,40.80
2023-05-20T03:11:57.508Z,40.79
2023-05-20T03:14:36.504Z,40.84
2023-05-20T03:17:09.620Z,40.87
2023-05-20T03:19:42.713Z,40.88
2023-05-20T03:22:16.702Z,40.92
2023-05-20T03:24:49.657Z,40.93
2023-05-20T03:27:22.389Z,40.94
2023-05-20T03:29:55.535Z,40.86
2023-05-20T03:32:28.916Z,40.87
2023-05-20T03:35:02.492Z,40.90
2023-05-20T03:37:35.486Z,40.86
2023-05-20T03:40:08.722Z,40.83
2023-05-20T03:42:41.440Z,40.82
2023-05-20T03:45:14.624Z,40.88
2023-05-20T03:47:47.706Z,40.83
2023-05-20T03:50:20.663Z,40.92
2023-05-20T03:52:53.724Z,40.92
2023-05-20T03:55:26.671Z,40.84
2023-05-20T03:57:59.606Z,40.91
2023-05-20T04:00:32.386Z,40.90
2023-05-20T04:03:05.392Z,40.90
2023-05-20T04:05:38.617Z,40.91
2023-05-20T04:08:11.746Z,40.83
2023-05-20T04:10:44.615Z,40.99
2023-05-20T04:13:17.713Z,40.88
2023-05-20T04:15:50.846Z,40.92
2023-05-20T04:18:24.697Z,40.94
2023-05-20T04:20:57.359Z,40.93
2023-05-20T04:23:30.764Z,40.98
2023-05-20T04:26:03.602Z,40.98
2023-05-20T04:28:36.685Z,41.02
2023-05-20T04:31:09.627Z,40.88
2023-05-20T04:33:42.674Z,40.98
2023-05-20T04:36:15.663Z,40.92
2023-05-20T04:38:48.496Z,41.00
2023-05-20T04:41:21.398Z,41.08
2023-05-20T04:43:54.789Z,40.98
2023-05-20T04:46:27.652Z,41.04
2023-05-20T04:49:00.663Z,40.99
2023-05-20T04:51:33.717Z,40.99
2023-05-20T04:54:06.776Z,41.03
2023-05-20T04:56:39.741Z,41.12
2023-05-20T04:59:12.753Z,41.09
2023-05-20T05:01:45.767Z,41.10
2023-05-20T05:04:18.446Z,41.25
2023-05-20T05:06:55.380Z,41.24
2023-05-20T05:09:28.743Z,41.19
2023-05-20T05:12:01.705Z,41.13
2023-05-20T05:14:34.734Z,41.18
2023-05-20T05:17:07.708Z,41.25
2023-05-20T05:19:40.530Z,41.22
2023-05-20T05:22:13.592Z,41.25
2023-05-20T05:24:46.874Z,41.12
2023-05-20T05:27:19.770Z,41.10
2023-05-20T05:29:52.765Z,41.20
2023-05-20T05:32:25.911Z,41.17
2023-05-20T05:34:58.867Z,41.12
2023-05-20T05:37:31.841Z,41.29
2023-05-20T05:40:04.730Z,41.27
2023-05-20T05:42:37.589Z,41.22
2023-05-20T05:45:10.667Z,41.08
2023-05-20T05:47:43.842Z,41.26
2023-05-20T05:50:16.654Z,41.35
2023-05-20T05:52:49.791Z,41.31
2023-05-20T05:55:22.631Z,41.26
2023-05-20T05:57:55.948Z,41.35
2023-05-20T06:00:29.892Z,41.32
2023-05-20T06:03:02.772Z,41.35
2023-05-20T06:05:36.051Z,41.34
2023-05-20T06:08:08.772Z,41.35
2023-05-20T06:10:41.932Z,41.43
2023-05-20T06:13:14.824Z,41.26
2023-05-20T06:15:47.681Z,41.45
2023-05-20T06:18:20.829Z,41.34
2023-05-20T06:20:53.870Z,41.38
2023-05-20T06:23:26.848Z,41.44
2023-05-20T06:25:59.901Z,41.47
2023-05-20T06:28:32.895Z,41.46
2023-05-20T06:31:05.910Z,41.42
2023-05-20T06:33:42.712Z,41.48
2023-05-20T06:36:15.633Z,41.50
2023-05-20T06:38:48.837Z,41.52
2023-05-20T06:41:21.884Z,41.52
2023-05-20T06:43:54.570Z,41.60
2023-05-20T06:46:27.884Z,41.58
2023-05-20T06:49:00.631Z,41.67
2023-05-20T06:51:33.959Z,41.66
2023-05-20T06:54:06.906Z,41.68
2023-05-20T06:56:39.730Z,41.74
2023-05-20T06:59:12.582Z,41.77
2023-05-20T07:01:45.763Z,41.78
2023-05-20T07:04:18.857Z,41.77
2023-05-20T07:06:52.137Z,41.83
2023-05-20T07:09:25.641Z,41.80
2023-05-20T07:11:58.742Z,41.81
2023-05-20T07:14:31.721Z,41.82
2023-05-20T07:17:04.786Z,41.83
2023-05-20T07:19:37.927Z,41.84
2023-05-20T07:22:10.620Z,41.82
2023-05-20T07:24:43.803Z,41.87
2023-05-20T07:27:17.836Z,41.77
2023-05-20T07:29:50.715Z,41.81
2023-05-20T07:32:23.930Z,41.78
2023-05-20T07:34:57.004Z,41.79
2023-05-20T07:37:29.894Z,41.85
2023-05-20T07:40:02.815Z,41.98
2023-05-20T07:42:35.860Z,41.92
2023-05-20T07:45:08.680Z,41.93
2023-05-20T07:47:41.780Z,41.96
2023-05-20T07:50:14.670Z,41.99
2023-05-20T07:52:55.880Z,41.98
2023-05-20T07:55:21.042Z,42.09
2023-05-20T07:57:54.034Z,42.11
2023-05-20T08:00:26.979Z,42.11
2023-05-20T08:03:00.037Z,42.15
2023-05-20T08:05:33.134Z,42.15
2023-05-20T08:08:05.685Z,42.21
2023-05-20T08:10:38.805Z,42.22
2023-05-20T08:13:11.700Z,42.49
2023-05-20T08:15:44.902Z,42.07
2023-05-20T08:18:17.819Z,41.69
2023-05-20T08:20:50.823Z,41.53
2023-05-20T08:23:23.803Z,41.55
2023-05-20T08:25:56.877Z,41.61
2023-05-20T08:28:30.082Z,41.69
2023-05-20T08:31:03.012Z,41.71
2023-05-20T08:33:36.219Z,41.78
2023-05-20T08:36:10.060Z,41.89
2023-05-20T08:38:42.860Z,41.95
2023-05-20T08:41:15.988Z,42.03
2023-05-20T08:43:49.143Z,42.04
2023-05-20T08:46:22.162Z,42.04
2023-05-20T08:48:55.299Z,42.12
2023-05-20T08:51:29.161Z,42.15
2023-05-20T08:54:02.149Z,42.13
2023-05-20T08:56:35.067Z,42.14
2023-05-20T08:59:09.081Z,42.12
2023-05-20T09:01:42.056Z,42.10
2023-05-20T09:04:15.040Z,42.17
2023-05-20T09:06:48.123Z,42.17
2023-05-20T09:09:21.049Z,42.16
2023-05-20T09:11:55.265Z,42.21
2023-05-20T09:14:28.981Z,42.26
2023-05-20T09:17:01.905Z,42.34
2023-05-20T09:19:35.181Z,42.39
2023-05-20T09:22:07.950Z,42.47
2023-05-20T09:24:41.123Z,42.33
2023-05-20T09:27:14.032Z,42.28
2023-05-20T09:29:47.123Z,42.30
2023-05-20T09:32:20.058Z,42.25
2023-05-20T09:34:53.135Z,42.29
2023-05-20T09:37:26.057Z,42.23
2023-05-20T09:39:59.091Z,42.26
2023-05-20T09:42:31.953Z,42.23
2023-05-20T09:45:07.920Z,42.22
2023-05-20T09:47:41.270Z,42.22
2023-05-20T09:50:14.121Z,42.11
2023-05-20T09:52:46.822Z,42.08
2023-05-20T09:55:20.168Z,41.99
2023-05-20T09:57:52.950Z,41.80
2023-05-20T10:00:26.190Z,41.90
2023-05-20T10:02:59.307Z,41.91
2023-05-20T10:05:32.334Z,41.90
2023-05-20T10:08:05.199Z,41.85
2023-05-20T10:10:38.214Z,41.84
2023-05-20T10:13:11.172Z,41.87
2023-05-20T10:15:44.276Z,41.87
2023-05-20T10:18:17.121Z,41.90
2023-05-20T10:20:50.211Z,41.87
2023-05-20T10:23:23.365Z,41.87
2023-05-20T10:25:57.078Z,41.86
2023-05-20T10:28:30.045Z,41.89
2023-05-20T10:31:03.386Z,41.87
2023-05-20T10:33:37.383Z,41.90
2023-05-20T10:36:11.176Z,41.90
2023-05-20T10:38:44.269Z,41.88
2023-05-20T10:41:17.303Z,41.90
2023-05-20T10:43:53.177Z,41.87
2023-05-20T10:46:33.975Z,41.91
2023-05-20T10:49:00.366Z,41.88
2023-05-20T10:51:33.333Z,41.88
2023-05-20T10:54:06.214Z,41.93
2023-05-20T10:56:39.176Z,41.94
2023-05-20T10:59:12.063Z,41.94
2023-05-20T11:01:45.273Z,41.93
2023-05-20T11:04:18.232Z,41.92
2023-05-20T11:06:51.347Z,41.90
2023-05-20T11:09:27.389Z,41.90
2023-05-20T11:12:01.346Z,41.93
2023-05-20T11:14:34.334Z,41.91
2023-05-20T11:17:07.550Z,41.90
2023-05-20T11:19:41.315Z,41.89
2023-05-20T11:22:14.382Z,41.87
2023-05-20T11:24:47.330Z,41.87
2023-05-20T11:27:19.956Z,41.85
2023-05-20T11:29:53.309Z,41.83
2023-05-20T11:32:26.548Z,41.85
2023-05-20T11:34:59.288Z,41.83
2023-05-20T11:37:32.276Z,41.84
2023-05-20T11:40:05.158Z,41.83
2023-05-20T11:42:38.138Z,41.81
2023-05-20T11:45:11.194Z,41.83
2023-05-20T11:47:44.183Z,41.86
2023-05-20T11:50:17.082Z,41.90
2023-05-20T11:52:50.229Z,41.92
2023-05-20T11:55:23.007Z,41.92
2023-05-20T11:57:56.125Z,41.92
2023-05-20T12:00:39.575Z,41.93
2023-05-20T12:03:02.459Z,41.95
2023-05-20T12:05:35.305Z,41.94
2023-05-20T12:08:08.242Z,41.96
2023-05-20T12:10:41.434Z,41.99
2023-05-20T12:13:14.171Z,41.99
2023-05-20T12:15:47.447Z,41.96
2023-05-20T12:18:20.399Z,41.99
2023-05-20T12:20:53.360Z,41.98
2023-05-20T12:23:26.296Z,41.92
2023-05-20T12:25:59.469Z,41.96
2023-05-20T12:28:32.367Z,41.99
2023-05-20T12:31:05.429Z,41.98
2023-05-20T12:33:38.540Z,41.99
2023-05-20T12:36:12.386Z,41.99
2023-05-20T12:38:45.440Z,42.03
2023-05-20T12:41:18.216Z,42.04
2023-05-20T12:43:51.199Z,42.03
2023-05-20T12:46:24.213Z,42.07
2023-05-20T12:48:57.594Z,42.07
2023-05-20T12:51:30.224Z,42.06
2023-05-20T12:54:03.483Z,42.08
2023-05-20T12:56:36.205Z,42.06
2023-05-20T12:59:09.431Z,42.09
2023-05-20T13:01:42.249Z,42.10
2023-05-20T13:04:15.165Z,42.08
2023-05-20T13:06:48.280Z,42.03
2023-05-20T13:09:21.127Z,42.06
2023-05-20T13:11:54.234Z,42.06
2023-05-20T13:14:27.368Z,42.05
2023-05-20T13:17:00.456Z,42.07
2023-05-20T13:19:33.572Z,42.06
2023-05-20T13:22:06.316Z,42.02
2023-05-20T13:24:39.263Z,42.06
2023-05-20T13:27:13.239Z,42.02
2023-05-20T13:29:46.313Z,42.03
2023-05-20T13:32:19.664Z,42.02
2023-05-20T13:34:53.377Z,42.01
2023-05-20T13:37:26.147Z,41.99
2023-05-20T13:39:59.555Z,42.01
2023-05-20T13:42:32.283Z,41.99
2023-05-20T13:45:05.248Z,42.01
2023-05-20T13:47:38.327Z,42.03
2023-05-20T13:50:11.504Z,42.00
2023-05-20T13:52:44.541Z,41.99
2023-05-20T13:55:17.171Z,42.00
2023-05-20T13:57:50.642Z,42.02
2023-05-20T14:00:24.428Z,41.97
2023-05-20T14:02:57.730Z,41.95
2023-05-20T14:05:30.520Z,41.94
2023-05-20T14:08:06.436Z,41.91
2023-05-20T14:10:39.359Z,41.94
2023-05-20T14:13:12.347Z,41.99
2023-05-20T14:15:45.307Z,42.01
2023-05-20T14:18:18.356Z,42.00
2023-05-20T14:20:51.374Z,41.99
2023-05-20T14:23:24.204Z,42.00
2023-05-20T14:25:57.236Z,42.05
2023-05-20T14:28:30.480Z,42.02
2023-05-20T14:31:03.266Z,42.02
2023-05-20T14:33:36.400Z,42.04
2023-05-20T14:36:09.269Z,42.05
2023-05-20T14:38:42.375Z,41.83
2023-05-20T14:41:15.736Z,41.64
2023-05-20T14:43:49.509Z,41.71
2023-05-20T14:46:22.711Z,41.77
2023-05-20T14:48:55.558Z,41.79
2023-05-20T14:51:28.534Z,41.76
2023-05-20T14:54:01.344Z,41.80
2023-05-20T14:56:34.567Z,41.83
2023-05-20T14:59:07.518Z,41.84
2023-05-20T15:01:40.570Z,41.86
2023-05-20T15:04:15.939Z,41.88
2023-05-20T15:06:54.487Z,41.69
2023-05-20T15:09:27.282Z,41.51
2023-05-20T15:12:00.640Z,41.48
2023-05-20T15:14:36.378Z,41.36
2023-05-20T15:17:09.599Z,41.30
2023-05-20T15:19:42.607Z,41.26
2023-05-20T15:22:15.648Z,41.21
2023-05-20T15:24:48.587Z,41.20
2023-05-20T15:27:22.397Z,41.14
2023-05-20T15:29:55.601Z,41.12
2023-05-20T15:32:28.663Z,41.06
2023-05-20T15:35:02.622Z,41.10
2023-05-20T15:37:34.346Z,41.06
2023-05-20T15:40:10.199Z,41.01
2023-05-20T15:42:43.758Z,41.02
2023-05-20T15:45:16.439Z,41.02
2023-05-20T15:47:49.603Z,41.27
2023-05-20T15:50:22.545Z,41.41
2023-05-20T15:52:55.608Z,41.64
2023-05-20T15:55:28.339Z,41.78
2023-05-20T15:58:01.661Z,41.85
2023-05-20T16:00:34.979Z,41.90
2023-05-20T16:03:07.457Z,41.93
2023-05-20T16:05:40.565Z,41.98
2023-05-20T16:08:13.525Z,42.03
2023-05-20T16:10:46.719Z,42.05
2023-05-20T16:13:19.525Z,42.00
2023-05-20T16:15:52.716Z,41.93
2023-05-20T16:18:25.707Z,41.87
2023-05-20T16:20:58.565Z,41.83
2023-05-20T16:23:31.709Z,41.81
2023-05-20T16:26:04.692Z,41.81
2023-05-20T16:28:37.641Z,41.76
2023-05-20T16:31:10.670Z,41.73
2023-05-20T16:33:43.672Z,41.74
2023-05-20T16:36:16.750Z,41.75
2023-05-20T16:38:49.788Z,41.70
2023-05-20T16:41:22.418Z,41.70
2023-05-20T16:43:55.894Z,41.69
2023-05-20T16:46:29.767Z,41.67
2023-05-20T16:49:02.410Z,41.45
2023-05-20T16:51:35.679Z,41.51
2023-05-20T16:54:08.583Z,41.43
2023-05-20T16:56:41.441Z,41.62
2023-05-20T16:59:14.762Z,41.64
2023-05-20T17:01:47.682Z,41.67
2023-05-20T17:04:20.840Z,41.69
2023-05-20T17:06:53.452Z,41.74
2023-05-20T17:09:26.638Z,41.77
2023-05-20T17:11:59.583Z,41.82
2023-05-20T17:14:32.442Z,41.82
2023-05-20T17:17:05.613Z,41.87
2023-05-20T17:19:38.464Z,41.90
2023-05-20T17:22:11.766Z,41.92
2023-05-20T17:24:44.614Z,41.95
2023-05-20T17:27:17.491Z,41.97
2023-05-20T17:29:50.598Z,41.98
2023-05-20T17:32:23.833Z,41.99
2023-05-20T17:34:56.962Z,41.92
2023-05-20T17:37:30.740Z,41.95
2023-05-20T17:40:03.524Z,41.97
2023-05-20T17:42:36.480Z,41.97
2023-05-20T17:45:09.505Z,41.97
2023-05-20T17:47:42.487Z,42.01
2023-05-20T17:50:15.502Z,42.04
2023-05-20T17:52:48.702Z,42.03
2023-05-20T17:55:21.717Z,42.00
2023-05-20T17:57:54.718Z,42.03
2023-05-20T18:00:27.675Z,42.02
2023-05-20T18:03:00.923Z,42.02
2023-05-20T18:05:33.749Z,42.11
2023-05-20T18:08:06.961Z,42.15
2023-05-20T18:10:39.792Z,42.22
2023-05-20T18:13:13.570Z,42.22
2023-05-20T18:15:47.765Z,42.29
2023-05-20T18:18:34.555Z,42.24
2023-05-20T18:21:15.451Z,42.23
2023-05-20T18:23:48.601Z,42.25
2023-05-20T18:26:21.762Z,42.28
2023-05-20T18:28:54.556Z,42.29
2023-05-20T18:31:27.772Z,42.30
2023-05-20T18:34:00.766Z,42.34
2023-05-20T18:36:33.783Z,42.31
2023-05-20T18:39:06.836Z,42.35
2023-05-20T18:44:13.824Z,42.36
2023-05-20T18:46:46.597Z,42.40
2023-05-20T18:49:20.712Z,42.40
2023-05-20T18:51:53.982Z,42.46
2023-05-20T18:54:26.781Z,42.49
2023-05-20T18:56:59.653Z,42.48
2023-05-20T18:59:32.876Z,42.51
2023-05-20T19:02:05.576Z,42.51
2023-05-20T19:04:39.115Z,42.58
2023-05-20T19:07:12.939Z,42.57
2023-05-20T19:09:45.625Z,42.62
2023-05-20T19:12:18.788Z,42.61
2023-05-20T19:14:51.748Z,42.68
2023-05-20T19:17:24.801Z,42.76
2023-05-20T19:19:57.840Z,42.72
2023-05-20T19:22:30.715Z,42.77
2023-05-20T19:25:03.635Z,42.80
2023-05-20T19:27:36.708Z,42.76
2023-05-20T19:30:12.872Z,42.81
2023-05-20T19:32:45.716Z,42.90
2023-05-20T19:35:32.822Z,42.89
2023-05-20T19:38:05.647Z,42.88
2023-05-20T19:40:38.807Z,42.93
2023-05-20T19:43:11.964Z,42.96
2023-05-20T19:45:44.809Z,43.00
2023-05-20T19:48:19.961Z,43.01
2023-05-20T19:50:51.242Z,43.02
2023-05-20T19:53:24.962Z,43.06
2023-05-20T19:55:58.084Z,43.14
2023-05-20T19:58:31.103Z,43.08
2023-05-20T20:01:04.699Z,43.14
2023-05-20T20:03:37.785Z,43.16
2023-05-20T20:06:10.943Z,43.31
2023-05-20T20:08:43.744Z,43.24
2023-05-20T20:11:17.093Z,43.15
2023-05-20T20:13:49.932Z,43.27
2023-05-20T20:16:23.915Z,43.26
2023-05-20T20:18:57.024Z,43.33
2023-05-20T20:21:33.503Z,43.41
2023-05-20T20:24:06.752Z,43.27
2023-05-20T20:26:39.899Z,43.49
2023-05-20T20:29:13.339Z,43.33
2023-05-20T20:31:46.744Z,43.30
2023-05-20T20:34:19.747Z,43.28
2023-05-20T20:36:53.215Z,43.30
2023-05-20T20:39:28.052Z,43.24
2023-05-20T20:42:08.491Z,43.24
2023-05-20T20:44:42.161Z,43.24
2023-05-20T20:47:18.690Z,43.24
2023-05-20T20:49:53.112Z,43.23
2023-05-20T20:52:25.940Z,43.19
2023-05-20T20:54:59.073Z,43.13
2023-05-20T20:57:31.973Z,43.17
2023-05-20T21:00:09.174Z,43.10
2023-05-20T21:02:42.172Z,43.05
2023-05-20T21:05:15.146Z,43.06
2023-05-20T21:07:49.107Z,43.05
2023-05-20T21:10:22.131Z,43.00
2023-05-20T21:12:56.283Z,43.02
2023-05-20T21:15:43.968Z,42.99
2023-05-20T21:18:32.202Z,43.01
2023-05-20T21:21:08.898Z,43.00
2023-05-20T21:23:43.280Z,42.98
2023-05-20T21:26:17.272Z,43.11
2023-05-20T21:28:50.851Z,43.06
2023-05-20T21:31:24.220Z,43.07
2023-05-20T21:33:57.389Z,43.06
2023-05-20T21:36:31.152Z,43.06
2023-05-20T21:39:04.097Z,43.07
2023-05-20T21:41:37.985Z,43.16
2023-05-20T21:44:12.180Z,43.22
2023-05-20T21:46:45.196Z,43.19
2023-05-20T21:49:18.259Z,43.17
2023-05-20T21:51:51.096Z,43.21
2023-05-20T21:54:24.317Z,43.23
2023-05-20T21:56:58.109Z,43.25
2023-05-20T21:59:32.198Z,43.24
2023-05-20T22:02:05.289Z,43.28
2023-05-20T22:04:37.983Z,43.27
2023-05-20T22:07:11.140Z,43.31
2023-05-20T22:09:44.033Z,43.33
2023-05-20T22:12:17.200Z,43.26
2023-05-20T22:14:50.142Z,43.31
2023-05-20T22:17:23.162Z,43.29
2023-05-20T22:19:56.276Z,43.32
2023-05-20T22:22:29.199Z,43.30
2023-05-20T22:25:02.496Z,43.39
2023-05-20T22:27:36.172Z,43.36
2023-05-20T22:30:09.453Z,43.35
2023-05-20T22:32:43.332Z,43.36
2023-05-20T22:35:16.233Z,43.42
2023-05-20T22:37:49.166Z,43.32
2023-05-20T22:40:22.249Z,43.35
2023-05-20T22:42:56.462Z,43.34
2023-05-20T22:45:30.345Z,43.35
2023-05-20T22:48:03.282Z,43.36
2023-05-20T22:50:36.248Z,43.35
2023-05-20T22:53:10.343Z,43.43
2023-05-20T22:55:43.224Z,43.45
2023-05-20T22:58:17.062Z,43.51
2023-05-20T23:00:50.192Z,43.54
2023-05-20T23:03:23.091Z,43.49
2023-05-20T23:05:55.965Z,43.42
2023-05-20T23:08:30.170Z,43.52
2023-05-20T23:11:03.132Z,43.54
2023-05-20T23:13:36.236Z,43.53
2023-05-20T23:16:09.334Z,43.55
2023-05-20T23:18:48.272Z,43.55
2023-05-20T23:21:25.188Z,43.68
2023-05-20T23:23:59.486Z,43.59
2023-05-20T23:26:33.360Z,43.62
2023-05-20T23:29:06.461Z,43.65
2023-05-20T23:31:40.502Z,43.64
2023-05-20T23:34:14.614Z,43.67
2023-05-20T23:36:48.354Z,43.65
2023-05-20T23:39:21.200Z,43.68
2023-05-20T23:41:54.257Z,43.64
2023-05-20T23:44:27.163Z,43.60
2023-05-20T23:47:00.576Z,43.65
2023-05-20T23:49:34.178Z,43.55
2023-05-20T23:52:07.450Z,43.67
2023-05-20T23:54:41.213Z,43.63
2023-05-20T23:57:14.351Z,43.63
2023-05-20T23:59:47.375Z,43.63
